createdAt,value
2022-09-30T00:00:14.712Z,100.00
2022-09-30T00:02:41.084Z,100.00
2022-09-30T00:05:07.602Z,100.00
2022-09-30T00:07:33.955Z,100.00
2022-09-30T00:10:00.320Z,100.00
2022-09-30T00:12:27.368Z,100.00
2022-09-30T00:14:54.101Z,100.00
2022-09-30T00:17:21.038Z,100.00
2022-09-30T00:19:47.809Z,100.00
2022-09-30T00:22:14.324Z,100.00
2022-09-30T00:24:40.802Z,100.00
2022-09-30T00:27:07.224Z,100.00
2022-09-30T00:29:33.590Z,100.00
2022-09-30T00:32:00.156Z,100.00
2022-09-30T00:34:26.665Z,100.00
2022-09-30T00:36:53.855Z,100.00
2022-09-30T00:39:22.221Z,100.00
2022-09-30T00:41:52.007Z,100.00
2022-09-30T00:44:36.791Z,100.00
2022-09-30T00:47:03.212Z,100.00
2022-09-30T00:49:29.671Z,100.00
2022-09-30T00:51:57.405Z,100.00
2022-09-30T00:54:26.316Z,100.00
2022-09-30T00:56:55.533Z,100.00
2022-09-30T00:59:27.137Z,100.00
2022-09-30T01:01:54.095Z,100.00
2022-09-30T01:04:22.307Z,100.00
2022-09-30T01:06:49.423Z,100.00
2022-09-30T01:09:16.260Z,100.00
2022-09-30T01:11:42.718Z,100.00
2022-09-30T01:14:14.474Z,100.00
2022-09-30T01:16:53.114Z,100.00
2022-09-30T01:19:31.803Z,100.00
2022-09-30T01:22:09.851Z,100.00
2022-09-30T01:24:36.171Z,100.00
2022-09-30T01:27:20.808Z,100.00
2022-09-30T01:30:01.746Z,100.00
2022-09-30T01:32:31.609Z,100.00
2022-09-30T01:35:18.275Z,100.00
2022-09-30T01:37:44.616Z,100.00
2022-09-30T01:40:22.740Z,100.00
2022-09-30T01:43:15.342Z,100.00
2022-09-30T01:45:46.930Z,100.00
2022-09-30T01:48:16.092Z,100.00
2022-09-30T01:50:42.423Z,100.00
2022-09-30T01:53:27.568Z,100.00
2022-09-30T01:55:57.797Z,100.00
2022-09-30T01:58:45.824Z,100.00
2022-09-30T02:01:17.501Z,100.00
2022-09-30T02:03:48.076Z,100.00
2022-09-30T02:06:18.445Z,100.00
2022-09-30T02:08:51.927Z,100.00
2022-09-30T02:11:23.997Z,100.00
2022-09-30T02:14:05.843Z,100.00
2022-09-30T02:16:46.030Z,100.00
2022-09-30T02:19:26.881Z,100.00
2022-09-30T02:21:57.383Z,100.00
2022-09-30T02:24:26.605Z,100.00
2022-09-30T02:26:56.282Z,100.00
2022-09-30T02:29:25.931Z,100.00
2022-09-30T02:31:56.018Z,100.00
2022-09-30T02:34:25.375Z,100.00
2022-09-30T02:36:57.185Z,100.00
2022-09-30T02:39:40.957Z,100.00
2022-09-30T02:42:11.551Z,100.00
2022-09-30T02:44:38.625Z,100.00
2022-09-30T02:47:08.031Z,100.00
2022-09-30T02:49:46.758Z,100.00
2022-09-30T02:52:13.141Z,100.00
2022-09-30T02:54:43.373Z,100.00
2022-09-30T02:57:18.754Z,100.00
2022-09-30T02:59:51.198Z,100.00
2022-09-30T03:02:18.071Z,100.00
2022-09-30T03:04:46.319Z,100.00
2022-09-30T03:07:12.959Z,100.00
2022-09-30T03:09:39.462Z,100.00
2022-09-30T03:12:19.624Z,100.00
2022-09-30T03:14:48.889Z,100.00
2022-09-30T03:17:26.902Z,100.00
2022-09-30T03:20:09.285Z,100.00
2022-09-30T03:22:38.726Z,100.00
2022-09-30T03:25:11.252Z,100.00
2022-09-30T03:27:42.673Z,100.00
2022-09-30T03:30:11.446Z,100.00
2022-09-30T03:32:37.765Z,100.00
2022-09-30T03:35:14.047Z,100.00
2022-09-30T03:37:52.043Z,100.00
2022-09-30T03:40:21.638Z,100.00
2022-09-30T03:42:53.953Z,100.00
2022-09-30T03:45:41.648Z,100.00
2022-09-30T03:48:10.061Z,100.00
2022-09-30T03:50:37.993Z,100.00
2022-09-30T03:53:09.220Z,100.00
2022-09-30T03:55:43.868Z,100.00
2022-09-30T03:58:10.187Z,100.00
2022-09-30T04:00:37.161Z,100.00
2022-09-30T04:03:03.626Z,100.00
2022-09-30T04:05:29.978Z,100.00
2022-09-30T04:07:56.345Z,100.00
2022-09-30T04:10:22.714Z,100.00
2022-09-30T04:12:49.145Z,100.00
2022-09-30T04:15:15.470Z,100.00
2022-09-30T04:17:41.839Z,100.00
2022-09-30T04:20:08.381Z,100.00
2022-09-30T04:22:34.733Z,100.00
2022-09-30T04:25:01.072Z,100.00
2022-09-30T04:27:27.441Z,100.00
2022-09-30T04:29:53.787Z,100.00
2022-09-30T04:32:21.950Z,100.00
2022-09-30T04:34:48.362Z,100.00
2022-09-30T04:37:15.707Z,100.00
2022-09-30T04:39:42.053Z,100.00
2022-09-30T04:42:08.464Z,100.00
2022-09-30T04:44:35.330Z,100.00
2022-09-30T04:47:01.773Z,100.00
2022-09-30T04:49:28.154Z,100.00
2022-09-30T04:51:54.643Z,100.00
2022-09-30T04:54:21.005Z,100.00
2022-09-30T04:56:47.370Z,100.00
2022-09-30T04:59:13.955Z,100.00
2022-09-30T05:01:42.475Z,100.00
2022-09-30T05:04:09.545Z,100.00
2022-09-30T05:06:36.321Z,100.00
2022-09-30T05:09:02.717Z,100.00
2022-09-30T05:11:29.618Z,100.00
2022-09-30T05:13:56.011Z,100.00
2022-09-30T05:16:22.413Z,100.00
2022-09-30T05:18:49.527Z,100.00
2022-09-30T05:21:17.618Z,100.00
2022-09-30T05:23:43.973Z,100.00
2022-09-30T05:26:12.428Z,100.00
2022-09-30T05:28:39.573Z,100.00
2022-09-30T05:31:06.555Z,100.00
2022-09-30T05:33:34.073Z,100.00
2022-09-30T05:36:01.671Z,100.00
2022-09-30T05:38:28.109Z,100.00
2022-09-30T05:40:54.635Z,100.00
2022-09-30T05:43:21.101Z,100.00
2022-09-30T05:45:56.789Z,100.00
2022-09-30T05:48:24.819Z,100.00
2022-09-30T05:50:55.316Z,100.00
2022-09-30T05:53:21.680Z,100.00
2022-09-30T05:55:48.581Z,100.00
2022-09-30T05:58:15.322Z,100.00
2022-09-30T06:00:42.584Z,100.00
2022-09-30T06:03:09.063Z,100.00
2022-09-30T06:05:35.450Z,100.00
2022-09-30T06:08:02.149Z,100.00
2022-09-30T06:10:28.684Z,100.00
2022-09-30T06:12:55.123Z,100.00
2022-09-30T06:15:21.581Z,100.00
2022-09-30T06:17:54.453Z,100.00
2022-09-30T06:20:22.598Z,100.00
2022-09-30T06:22:48.965Z,100.00
2022-09-30T06:25:15.406Z,100.00
2022-09-30T06:27:44.482Z,100.00
2022-09-30T06:30:11.062Z,100.00
2022-09-30T06:32:37.431Z,100.00
2022-09-30T06:35:04.159Z,100.00
2022-09-30T06:37:30.589Z,100.00
2022-09-30T06:39:56.960Z,100.00
2022-09-30T06:42:24.443Z,100.00
2022-09-30T06:44:53.462Z,100.00
2022-09-30T06:47:25.179Z,100.00
2022-09-30T06:49:53.047Z,100.00
2022-09-30T06:52:20.095Z,100.00
2022-09-30T06:54:47.094Z,100.00
2022-09-30T06:57:13.662Z,100.00
2022-09-30T06:59:40.042Z,100.00
2022-09-30T07:02:06.547Z,100.00
2022-09-30T07:04:32.989Z,100.00
2022-09-30T07:06:59.335Z,100.00
2022-09-30T07:09:25.852Z,100.00
2022-09-30T07:11:52.377Z,100.00
2022-09-30T07:14:18.793Z,100.00
2022-09-30T07:16:45.353Z,100.00
2022-09-30T07:19:12.094Z,100.00
2022-09-30T07:21:38.421Z,100.00
2022-09-30T07:24:05.615Z,100.00
2022-09-30T07:26:32.465Z,100.00
2022-09-30T07:29:00.206Z,100.00
2022-09-30T07:31:32.926Z,100.00
2022-09-30T07:34:00.386Z,100.00
2022-09-30T07:36:33.787Z,100.00
2022-09-30T07:39:05.364Z,100.00
2022-09-30T07:41:31.892Z,100.00
2022-09-30T07:44:01.472Z,100.00
2022-09-30T07:46:31.359Z,100.00
2022-09-30T07:49:01.487Z,100.00
2022-09-30T07:51:31.087Z,100.00
2022-09-30T07:53:59.448Z,98.54
2022-09-30T07:56:25.984Z,88.74
2022-09-30T07:58:56.430Z,89.86
2022-09-30T08:01:23.137Z,80.96
2022-09-30T08:03:52.709Z,78.18
2022-09-30T08:06:19.628Z,73.96
2022-09-30T08:08:47.508Z,76.32
2022-09-30T08:11:16.999Z,80.93
2022-09-30T08:13:43.408Z,84.66
2022-09-30T08:16:09.802Z,78.10
2022-09-30T08:18:36.387Z,79.93
2022-09-30T08:21:06.498Z,77.09
2022-09-30T08:23:33.819Z,65.23
2022-09-30T08:26:01.173Z,55.58
2022-09-30T08:28:27.703Z,48.41
2022-09-30T08:30:54.201Z,49.47
2022-09-30T08:33:20.665Z,48.88
2022-09-30T08:35:47.193Z,53.11
2022-09-30T08:38:13.661Z,60.35
2022-09-30T08:40:55.530Z,65.53
2022-09-30T08:43:42.429Z,67.16
2022-09-30T08:46:30.422Z,68.36
2022-09-30T08:49:24.165Z,77.66
2022-09-30T08:51:52.474Z,78.13
2022-09-30T08:54:23.099Z,59.19
2022-09-30T08:56:49.890Z,54.44
2022-09-30T08:59:32.853Z,53.56
2022-09-30T09:02:30.323Z,55.11
2022-09-30T09:05:05.475Z,61.67
2022-09-30T09:07:37.451Z,72.54
2022-09-30T09:10:44.019Z,71.81
2022-09-30T09:13:25.825Z,76.18
2022-09-30T09:16:21.034Z,77.93
2022-09-30T09:18:54.879Z,81.14
2022-09-30T09:21:42.209Z,85.72
2022-09-30T09:24:22.376Z,79.74
2022-09-30T09:26:49.902Z,66.61
2022-09-30T09:29:34.715Z,60.27
2022-09-30T09:32:03.492Z,59.68
2022-09-30T09:34:30.722Z,57.00
2022-09-30T09:37:00.034Z,55.92
2022-09-30T09:39:49.541Z,54.09
2022-09-30T09:42:42.416Z,43.41
2022-09-30T09:45:34.827Z,48.11
2022-09-30T09:48:01.608Z,48.15
2022-09-30T09:50:57.496Z,47.68
2022-09-30T09:53:42.209Z,40.33
2022-09-30T09:56:24.154Z,34.75
2022-09-30T09:59:09.684Z,42.13
2022-09-30T10:01:39.868Z,42.34
2022-09-30T10:04:10.404Z,42.25
2022-09-30T10:07:00.600Z,43.69
2022-09-30T10:09:33.450Z,42.52
2022-09-30T10:12:05.928Z,46.84
2022-09-30T10:14:46.134Z,43.93
2022-09-30T10:17:19.983Z,44.66
2022-09-30T10:19:54.886Z,37.82
2022-09-30T10:22:28.835Z,36.92
2022-09-30T10:25:14.095Z,38.05
2022-09-30T10:27:59.911Z,37.88
2022-09-30T10:30:38.857Z,45.76
2022-09-30T10:33:23.858Z,48.28
2022-09-30T10:36:00.276Z,52.20
2022-09-30T10:38:29.749Z,50.12
2022-09-30T10:40:56.939Z,45.47
2022-09-30T10:43:50.022Z,48.36
2022-09-30T10:46:27.708Z,52.77
2022-09-30T10:48:56.254Z,53.21
2022-09-30T10:51:34.043Z,60.72
2022-09-30T10:54:00.988Z,65.16
2022-09-30T10:56:34.854Z,64.69
2022-09-30T10:59:02.859Z,57.48
2022-09-30T11:01:51.510Z,54.33
2022-09-30T11:04:28.911Z,49.11
2022-09-30T11:07:15.542Z,48.03
2022-09-30T11:09:52.142Z,52.46
2022-09-30T11:12:24.628Z,57.39
2022-09-30T11:14:57.806Z,55.64
2022-09-30T11:17:59.243Z,63.94
2022-09-30T11:20:38.907Z,66.24
2022-09-30T11:23:05.294Z,65.80
2022-09-30T11:25:34.726Z,67.63
2022-09-30T11:28:26.203Z,71.42
2022-09-30T11:31:08.214Z,68.18
2022-09-30T11:33:41.298Z,71.33
2022-09-30T11:36:07.649Z,76.42
2022-09-30T11:38:42.174Z,75.27
2022-09-30T11:41:34.978Z,73.86
2022-09-30T11:44:01.394Z,74.77
2022-09-30T11:46:33.858Z,72.10
2022-09-30T11:49:26.734Z,81.62
2022-09-30T11:52:07.397Z,77.50
2022-09-30T11:54:45.128Z,74.24
2022-09-30T11:57:17.700Z,75.95
2022-09-30T11:59:48.517Z,73.88
2022-09-30T12:02:35.153Z,70.60
2022-09-30T12:05:07.853Z,75.18
2022-09-30T12:07:43.927Z,72.21
2022-09-30T12:10:16.458Z,72.43
2022-09-30T12:12:43.911Z,68.48
2022-09-30T12:15:15.462Z,71.22
2022-09-30T12:17:48.474Z,72.53
2022-09-30T12:20:26.682Z,70.48
2022-09-30T12:23:01.137Z,71.67
2022-09-30T12:25:40.627Z,75.21
2022-09-30T12:28:34.784Z,75.10
2022-09-30T12:31:21.220Z,78.82
2022-09-30T12:34:00.714Z,77.15
2022-09-30T12:36:45.991Z,78.23
2022-09-30T12:39:24.643Z,78.88
2022-09-30T12:42:14.327Z,80.01
2022-09-30T12:45:06.767Z,79.26
2022-09-30T12:47:36.103Z,69.76
2022-09-30T12:50:06.143Z,75.69
2022-09-30T12:52:33.913Z,74.42
2022-09-30T12:55:02.969Z,74.69
2022-09-30T12:57:34.029Z,74.45
2022-09-30T13:00:02.516Z,79.21
2022-09-30T13:02:31.841Z,81.82
2022-09-30T13:05:17.946Z,77.66
2022-09-30T13:08:02.718Z,78.46
2022-09-30T13:10:31.100Z,77.42
2022-09-30T13:13:19.213Z,82.91
2022-09-30T13:15:46.427Z,85.94
2022-09-30T13:18:28.161Z,85.25
2022-09-30T13:20:56.738Z,87.21
2022-09-30T13:23:41.613Z,89.58
2022-09-30T13:26:26.291Z,84.37
2022-09-30T13:28:53.542Z,85.44
2022-09-30T13:31:23.732Z,77.57
2022-09-30T13:34:01.986Z,72.52
2022-09-30T13:36:31.714Z,73.94
2022-09-30T13:39:21.657Z,75.31
2022-09-30T13:42:00.282Z,73.31
2022-09-30T13:44:32.730Z,72.80
2022-09-30T13:47:08.841Z,74.43
2022-09-30T13:49:35.158Z,69.53
2022-09-30T13:52:06.465Z,66.05
2022-09-30T13:54:37.672Z,61.82
2022-09-30T13:57:06.493Z,61.68
2022-09-30T14:00:01.968Z,66.76
2022-09-30T14:02:46.534Z,68.07
2022-09-30T14:06:00.640Z,61.67
2022-09-30T14:08:47.342Z,59.38
2022-09-30T14:11:35.603Z,63.02
2022-09-30T14:14:25.756Z,66.40
2022-09-30T14:16:54.959Z,62.62
2022-09-30T14:19:34.062Z,66.71
2022-09-30T14:22:06.913Z,67.21
2022-09-30T14:24:37.806Z,71.21
2022-09-30T14:27:38.086Z,72.50
2022-09-30T14:30:20.623Z,73.94
2022-09-30T14:32:55.328Z,75.97
2022-09-30T14:35:29.463Z,76.05
2022-09-30T14:38:01.181Z,81.32
2022-09-30T14:40:30.470Z,79.46
2022-09-30T14:43:04.945Z,78.54
2022-09-30T14:45:35.069Z,79.03
2022-09-30T14:48:08.331Z,77.96
2022-09-30T14:50:46.003Z,78.13
2022-09-30T14:53:34.219Z,73.73
2022-09-30T14:56:03.039Z,79.40
2022-09-30T14:58:31.600Z,80.16
2022-09-30T15:01:10.023Z,80.07
2022-09-30T15:03:39.883Z,83.81
2022-09-30T15:06:18.214Z,78.30
2022-09-30T15:08:44.702Z,78.08
2022-09-30T15:11:18.346Z,80.42
2022-09-30T15:13:45.332Z,83.48
2022-09-30T15:16:30.502Z,82.31
2022-09-30T15:18:58.021Z,83.67
2022-09-30T15:21:27.273Z,83.50
2022-09-30T15:24:00.741Z,85.47
2022-09-30T15:26:27.776Z,85.21
2022-09-30T15:28:54.858Z,85.59
2022-09-30T15:31:29.207Z,86.46
2022-09-30T15:34:20.452Z,89.28
2022-09-30T15:36:58.195Z,89.99
2022-09-30T15:39:47.558Z,89.23
2022-09-30T15:42:35.405Z,86.86
2022-09-30T15:45:43.338Z,84.35
2022-09-30T15:48:16.765Z,87.96
2022-09-30T15:50:44.550Z,89.51
2022-09-30T15:53:24.214Z,93.57
2022-09-30T15:55:59.951Z,93.97
2022-09-30T15:58:26.657Z,95.17
2022-09-30T16:01:09.194Z,96.85
2022-09-30T16:03:36.689Z,97.98
2022-09-30T16:06:12.327Z,97.78
2022-09-30T16:08:44.665Z,100.00
2022-09-30T16:11:21.861Z,100.00
2022-09-30T16:13:49.171Z,100.00
2022-09-30T16:16:23.991Z,100.00
2022-09-30T16:18:53.361Z,100.00
2022-09-30T16:21:44.776Z,100.00
2022-09-30T16:24:44.534Z,100.00
2022-09-30T16:27:22.787Z,100.00
2022-09-30T16:29:49.263Z,100.00
2022-09-30T16:32:15.764Z,100.00
2022-09-30T16:34:42.286Z,100.00
2022-09-30T16:37:13.635Z,100.00
2022-09-30T16:39:40.471Z,100.00
2022-09-30T16:42:12.144Z,100.00
2022-09-30T16:44:38.595Z,100.00
2022-09-30T16:47:05.116Z,100.00
2022-09-30T16:49:31.562Z,100.00
2022-09-30T16:51:58.094Z,100.00
2022-09-30T16:54:24.739Z,100.00
2022-09-30T16:56:51.248Z,100.00
2022-09-30T16:59:19.034Z,100.00
2022-09-30T17:01:45.518Z,100.00
2022-09-30T17:04:15.227Z,100.00
2022-09-30T17:06:44.132Z,100.00
2022-09-30T17:09:10.603Z,100.00
2022-09-30T17:11:38.089Z,100.00
2022-09-30T17:14:05.762Z,100.00
2022-09-30T17:16:34.250Z,100.00
2022-09-30T17:19:01.039Z,100.00
2022-09-30T17:21:27.947Z,100.00
2022-09-30T17:23:55.722Z,100.00
2022-09-30T17:26:22.636Z,100.00
2022-09-30T17:28:49.101Z,100.00
2022-09-30T17:31:15.962Z,100.00
2022-09-30T17:33:42.525Z,100.00
2022-09-30T17:36:13.119Z,100.00
2022-09-30T17:38:39.907Z,100.00
2022-09-30T17:41:25.586Z,100.00
2022-09-30T17:43:52.099Z,100.00
2022-09-30T17:46:22.531Z,100.00
2022-09-30T17:48:50.790Z,100.00
2022-09-30T17:51:17.325Z,100.00
2022-09-30T17:53:44.455Z,100.00
2022-09-30T17:56:20.650Z,100.00
2022-09-30T17:58:49.079Z,100.00
2022-09-30T18:01:18.209Z,100.00
2022-09-30T18:03:45.871Z,100.00
2022-09-30T18:06:14.452Z,100.00
2022-09-30T18:08:41.123Z,100.00
2022-09-30T18:11:07.701Z,100.00
2022-09-30T18:13:34.331Z,100.00
2022-09-30T18:16:06.108Z,100.00
2022-09-30T18:18:34.523Z,100.00
2022-09-30T18:21:01.001Z,100.00
2022-09-30T18:23:27.451Z,100.00
2022-09-30T18:25:54.973Z,100.00
2022-09-30T18:28:21.547Z,100.00
2022-09-30T18:30:48.080Z,100.00
2022-09-30T18:33:17.291Z,100.00
2022-09-30T18:35:44.219Z,100.00
2022-09-30T18:38:12.751Z,100.00
2022-09-30T18:40:43.298Z,100.00
2022-09-30T18:43:12.926Z,100.00
2022-09-30T18:45:40.284Z,100.00
2022-09-30T18:48:07.480Z,100.00
2022-09-30T18:50:34.652Z,100.00
2022-09-30T18:53:09.125Z,100.00
2022-09-30T18:55:39.768Z,100.00
2022-09-30T18:58:06.256Z,100.00
2022-09-30T19:00:32.895Z,100.00
2022-09-30T19:02:59.487Z,100.00
2022-09-30T19:05:26.441Z,100.00
2022-09-30T19:07:53.739Z,100.00
2022-09-30T19:10:20.703Z,100.00
2022-09-30T19:12:47.213Z,100.00
2022-09-30T19:15:17.905Z,100.00
2022-09-30T19:17:45.235Z,100.00
2022-09-30T19:20:12.894Z,100.00
2022-09-30T19:22:39.354Z,100.00
2022-09-30T19:25:08.145Z,100.00
2022-09-30T19:27:37.689Z,100.00
2022-09-30T19:30:06.382Z,100.00
2022-09-30T19:32:35.007Z,100.00
2022-09-30T19:35:07.146Z,100.00
2022-09-30T19:37:34.979Z,100.00
2022-09-30T19:40:14.485Z,100.00
2022-09-30T19:42:48.164Z,100.00
2022-09-30T19:45:16.554Z,100.00
2022-09-30T19:47:43.415Z,100.00
2022-09-30T19:50:10.076Z,100.00
2022-09-30T19:52:43.135Z,100.00
2022-09-30T19:55:16.945Z,100.00
2022-09-30T19:57:43.696Z,100.00
2022-09-30T20:00:12.475Z,100.00
2022-09-30T20:02:39.080Z,100.00
2022-09-30T20:05:06.436Z,100.00
2022-09-30T20:07:33.012Z,100.00
2022-09-30T20:10:00.862Z,100.00
2022-09-30T20:12:28.541Z,100.00
2022-09-30T20:15:13.847Z,100.00
2022-09-30T20:17:40.382Z,100.00
2022-09-30T20:20:25.760Z,100.00
2022-09-30T20:22:53.265Z,100.00
2022-09-30T20:25:20.226Z,100.00
2022-09-30T20:27:52.014Z,100.00
2022-09-30T20:30:19.752Z,100.00
2022-09-30T20:32:46.194Z,100.00
2022-09-30T20:35:12.983Z,100.00
2022-09-30T20:37:40.768Z,100.00
2022-09-30T20:40:09.314Z,100.00
2022-09-30T20:42:37.856Z,100.00
2022-09-30T20:45:06.192Z,100.00
2022-09-30T20:47:32.652Z,100.00
2022-09-30T20:49:59.114Z,100.00
2022-09-30T20:52:25.664Z,100.00
2022-09-30T20:54:53.084Z,100.00
2022-09-30T20:57:19.601Z,100.00
2022-09-30T20:59:47.218Z,100.00
2022-09-30T21:02:14.332Z,100.00
2022-09-30T21:04:40.911Z,100.00
2022-09-30T21:07:07.406Z,100.00
2022-09-30T21:09:36.694Z,100.00
2022-09-30T21:12:03.208Z,100.00
2022-09-30T21:14:29.667Z,100.00
2022-09-30T21:16:56.098Z,100.00
2022-09-30T21:19:22.599Z,100.00
2022-09-30T21:21:49.045Z,100.00
2022-09-30T21:24:16.387Z,100.00
2022-09-30T21:26:43.274Z,100.00
2022-09-30T21:29:09.736Z,100.00
2022-09-30T21:31:37.813Z,100.00
2022-09-30T21:34:04.647Z,100.00
2022-09-30T21:36:32.158Z,100.00
2022-09-30T21:39:04.864Z,100.00
2022-09-30T21:41:33.307Z,100.00
2022-09-30T21:44:01.367Z,100.00
2022-09-30T21:46:29.451Z,100.00
2022-09-30T21:49:07.720Z,100.00
2022-09-30T21:51:35.324Z,100.00
2022-09-30T21:54:02.860Z,100.00
2022-09-30T21:56:29.343Z,100.00
2022-09-30T21:58:56.085Z,100.00
2022-09-30T22:01:23.278Z,100.00
2022-09-30T22:03:49.859Z,100.00
2022-09-30T22:06:19.218Z,100.00
2022-09-30T22:08:45.955Z,100.00
2022-09-30T22:11:25.306Z,100.00
2022-09-30T22:13:55.515Z,100.00
2022-09-30T22:16:25.996Z,100.00
2022-09-30T22:19:00.824Z,100.00
2022-09-30T22:21:32.024Z,100.00
2022-09-30T22:24:01.564Z,100.00
2022-09-30T22:26:29.676Z,100.00
2022-09-30T22:28:58.673Z,100.00
2022-09-30T22:31:27.266Z,100.00
2022-09-30T22:34:20.689Z,100.00
2022-09-30T22:37:06.330Z,100.00
2022-09-30T22:39:33.095Z,100.00
2022-09-30T22:42:00.393Z,100.00
2022-09-30T22:44:29.453Z,100.00
2022-09-30T22:46:58.039Z,100.00
2022-09-30T22:49:25.287Z,100.00
2022-09-30T22:51:53.318Z,100.00
2022-09-30T22:54:20.588Z,100.00
2022-09-30T22:56:48.849Z,100.00
2022-09-30T22:59:15.822Z,100.00
2022-09-30T23:01:43.870Z,100.00
2022-09-30T23:04:11.370Z,100.00
2022-09-30T23:06:38.078Z,100.00
2022-09-30T23:09:05.601Z,100.00
2022-09-30T23:11:32.805Z,100.00
2022-09-30T23:13:59.552Z,100.00
2022-09-30T23:16:26.249Z,100.00
2022-09-30T23:18:52.929Z,100.00
2022-09-30T23:21:19.767Z,100.00
2022-09-30T23:23:48.289Z,100.00
2022-09-30T23:26:18.033Z,100.00
2022-09-30T23:28:45.538Z,100.00
2022-09-30T23:31:15.906Z,100.00
2022-09-30T23:33:49.011Z,100.00
2022-09-30T23:36:18.066Z,100.00
2022-09-30T23:38:44.990Z,100.00
2022-09-30T23:41:13.152Z,100.00
2022-09-30T23:43:40.091Z,100.00
2022-09-30T23:46:07.606Z,100.00
2022-09-30T23:48:36.464Z,100.00
2022-09-30T23:51:05.269Z,100.00
2022-09-30T23:53:33.299Z,100.00
2022-09-30T23:56:09.509Z,100.00
2022-09-30T23:58:36.311Z,100.00
